Time;durP1;ratioP1;P1;durP2;ratioP2;P2;SDS_P1;SDS_P2;PMS_P1;PMS_P2;Temp;Humidity;BMP_temperature;BMP_pressure;BME280_temperature;BME280_humidity;BME280_pressure;Samples;Min_cycle;Max_cycle;Signal;HPM_P1;HPM_P2
2022/03/25 00:01:14;;;;;;;18.60;12.50;;;2.50;99.90;;;;;;5075125;28;20056;-78
2022/03/25 00:03:41;;;;;;;20.73;11.30;;;2.50;99.90;;;;;;5075866;28;20056;-78
2022/03/25 00:06:09;;;;;;;17.93;13.13;;;2.40;99.90;;;;;;5074917;28;20109;-79
2022/03/25 00:08:36;;;;;;;25.73;12.23;;;2.30;99.90;;;;;;5074811;28;20056;-80
2022/03/25 00:11:03;;;;;;;20.43;14.37;;;2.40;99.90;;;;;;5074920;28;20099;-79
2022/03/25 00:13:30;;;;;;;17.30;13.33;;;2.40;99.90;;;;;;5075621;28;20052;-79
2022/03/25 00:15:57;;;;;;;19.27;13.53;;;2.40;99.90;;;;;;5074720;28;20102;-79
2022/03/25 00:18:24;;;;;;;20.60;12.77;;;2.50;99.90;;;;;;5075013;28;20044;-79
2022/03/25 00:20:50;;;;;;;26.90;13.07;;;2.50;99.90;;;;;;5075556;28;20048;-79
2022/03/25 00:23:18;;;;;;;23.20;14.23;;;2.40;99.90;;;;;;5075540;28;20147;-80
2022/03/25 00:25:45;;;;;;;17.60;13.80;;;2.40;99.90;;;;;;5074875;28;20478;-78
2022/03/25 00:28:11;;;;;;;19.70;13.70;;;2.40;99.90;;;;;;5074472;28;20049;-79
2022/03/25 00:30:38;;;;;;;23.23;13.13;;;2.30;99.90;;;;;;5074851;28;20502;-79
2022/03/25 00:33:05;;;;;;;21.23;13.17;;;2.30;99.90;;;;;;5075411;28;20056;-80
2022/03/25 00:35:32;;;;;;;21.70;13.03;;;2.30;99.90;;;;;;5074237;28;20072;-79
2022/03/25 00:37:59;;;;;;;28.20;16.10;;;2.20;99.90;;;;;;5075174;28;20118;-79
2022/03/25 00:40:26;;;;;;;25.97;15.07;;;2.10;99.90;;;;;;5074563;28;20046;-79
2022/03/25 00:42:53;;;;;;;25.53;17.57;;;2.10;99.90;;;;;;5074595;28;20074;-79
2022/03/25 00:45:21;;;;;;;35.50;23.83;;;2.20;99.90;;;;;;5074997;28;20475;-79
2022/03/25 00:47:47;;;;;;;47.30;22.43;;;2.10;99.90;;;;;;5074839;28;20052;-79
2022/03/25 00:50:14;;;;;;;37.47;21.43;;;2.10;99.90;;;;;;5074237;28;20052;-79
2022/03/25 00:52:41;;;;;;;24.67;16.93;;;2.00;99.90;;;;;;5075065;28;20052;-79
2022/03/25 00:55:08;;;;;;;27.93;18.90;;;1.90;99.90;;;;;;5074489;28;20048;-79
2022/03/25 00:57:36;;;;;;;28.67;18.80;;;1.80;99.90;;;;;;5074642;28;20044;-79
2022/03/25 01:00:04;;;;;;;25.30;15.10;;;1.80;99.90;;;;;;5073245;28;20037;-79
2022/03/25 01:02:31;;;;;;;25.57;16.13;;;1.70;99.90;;;;;;5073937;28;20445;-79
2022/03/25 01:04:58;;;;;;;25.93;16.03;;;1.70;99.90;;;;;;5074022;28;20120;-78
2022/03/25 01:07:24;;;;;;;30.33;19.47;;;1.70;99.90;;;;;;5074289;28;20053;-78
2022/03/25 01:09:51;;;;;;;30.30;18.67;;;1.70;99.90;;;;;;5073718;28;20079;-77
2022/03/25 01:12:19;;;;;;;27.27;19.50;;;1.70;99.90;;;;;;5073917;28;20040;-78
2022/03/25 01:14:47;;;;;;;27.53;18.50;;;1.50;99.90;;;;;;5074020;28;20080;-79
2022/03/25 01:17:14;;;;;;;27.53;19.03;;;1.40;99.90;;;;;;5073529;28;20102;-78
2022/03/25 01:19:41;;;;;;;33.90;19.10;;;1.30;99.90;;;;;;5074158;28;20117;-78
2022/03/25 01:22:08;;;;;;;35.90;19.90;;;1.20;99.90;;;;;;5077898;28;20115;-78
2022/03/25 01:24:35;;;;;;;30.60;19.63;;;1.00;99.90;;;;;;5075857;28;20105;-79
2022/03/25 01:27:04;;;;;;;29.47;20.40;;;0.90;99.90;;;;;;5072770;28;20415;-79
2022/03/25 01:29:30;;;;;;;28.37;20.10;;;0.80;99.90;;;;;;5073898;28;20044;-79
2022/03/25 01:31:59;;;;;;;28.57;17.73;;;0.80;99.90;;;;;;5073484;28;20066;-78
2022/03/25 01:34:25;;;;;;;25.80;18.07;;;0.80;99.90;;;;;;5074293;28;20103;-78
2022/03/25 01:36:52;;;;;;;26.23;15.30;;;0.90;99.90;;;;;;5073425;28;20040;-78
2022/03/25 01:39:19;;;;;;;26.90;15.90;;;0.80;99.90;;;;;;5073967;28;20053;-78
2022/03/25 01:41:47;;;;;;;24.07;14.90;;;0.70;99.90;;;;;;5072862;28;20473;-79
2022/03/25 01:44:15;;;;;;;22.17;14.77;;;0.80;99.90;;;;;;5073190;28;20078;-77
2022/03/25 01:46:42;;;;;;;24.63;15.23;;;0.90;99.90;;;;;;5073592;28;20540;-79
2022/03/25 01:49:10;;;;;;;20.37;13.90;;;0.80;99.90;;;;;;5073615;28;20044;-78
2022/03/25 01:51:37;;;;;;;19.93;12.83;;;0.70;99.90;;;;;;5073532;28;20530;-77
2022/03/25 01:54:07;;;;;;;20.40;13.57;;;0.60;99.90;;;;;;5072847;28;20078;-77
2022/03/25 01:56:35;;;;;;;19.33;13.77;;;0.50;99.90;;;;;;5073320;28;20056;-77
2022/03/25 01:59:01;;;;;;;22.03;13.97;;;0.40;99.90;;;;;;5074473;28;20143;-77
2022/03/25 02:01:28;;;;;;;21.90;13.83;;;0.30;99.90;;;;;;5072572;28;20040;-78
2022/03/25 02:03:54;;;;;;;22.30;13.43;;;0.30;99.90;;;;;;5072139;28;20482;-78
2022/03/25 02:06:22;;;;;;;27.80;14.53;;;0.40;99.90;;;;;;5073072;28;20498;-78
2022/03/25 02:08:49;;;;;;;22.53;13.70;;;0.40;99.90;;;;;;5073207;28;20146;-78
2022/03/25 02:11:18;;;;;;;20.70;13.57;;;0.40;99.90;;;;;;5071838;28;20036;-78
2022/03/25 02:13:45;;;;;;;18.67;14.40;;;0.30;99.90;;;;;;5072678;28;20170;-78
2022/03/25 02:16:12;;;;;;;20.90;15.97;;;0.30;99.90;;;;;;5072724;28;20056;-78
2022/03/25 02:18:39;;;;;;;16.60;12.40;;;0.40;99.90;;;;;;5072939;28;20498;-78
2022/03/25 02:21:06;;;;;;;17.20;13.20;;;0.50;99.90;;;;;;5073459;28;20110;-78
2022/03/25 02:23:34;;;;;;;17.50;12.63;;;0.60;99.90;;;;;;5073543;28;20086;-78
2022/03/25 02:26:01;;;;;;;20.53;13.67;;;0.70;99.90;;;;;;5072627;28;20072;-77
2022/03/25 02:28:33;;;;;;;24.23;14.70;;;0.80;99.90;;;;;;5073297;28;20460;-78
2022/03/25 02:31:05;;;;;;;20.30;12.27;;;0.80;99.90;;;;;;5065550;28;20110;-78
2022/03/25 02:33:32;;;;;;;24.07;15.97;;;0.70;99.90;;;;;;5064101;28;20052;-78
2022/03/25 02:36:01;;;;;;;23.53;13.43;;;0.60;99.90;;;;;;5067152;28;20482;-79
2022/03/25 02:38:28;;;;;;;26.63;14.07;;;0.40;99.90;;;;;;5067206;28;20080;-79
2022/03/25 02:40:56;;;;;;;25.63;14.90;;;0.40;99.90;;;;;;5067957;28;20474;-79
2022/03/25 02:43:22;;;;;;;25.60;13.90;;;0.30;99.90;;;;;;5067966;28;20049;-79
2022/03/25 02:45:51;;;;;;;24.10;13.70;;;0.30;99.90;;;;;;5070568;28;20431;-78
2022/03/25 02:48:18;;;;;;;18.87;14.50;;;0.40;99.90;;;;;;5068815;28;20045;-79
2022/03/25 02:50:46;;;;;;;24.90;14.10;;;0.40;99.90;;;;;;5073793;28;20053;-78
2022/03/25 02:53:16;;;;;;;21.50;14.63;;;0.50;99.90;;;;;;5077223;28;20048;-78
2022/03/25 02:55:43;;;;;;;23.93;14.60;;;0.60;99.90;;;;;;5077223;28;20048;-77
2022/03/25 02:58:11;;;;;;;21.47;14.67;;;0.60;99.90;;;;;;5076146;28;20045;-78
2022/03/25 03:00:38;;;;;;;30.53;18.30;;;0.70;99.90;;;;;;5076145;28;20114;-78
2022/03/25 03:03:04;;;;;;;45.33;25.83;;;0.70;99.90;;;;;;5076579;28;20480;-77
2022/03/25 03:05:33;;;;;;;27.60;16.63;;;0.70;99.90;;;;;;5074202;28;20048;-78
2022/03/25 03:07:59;;;;;;;20.10;13.60;;;0.70;99.90;;;;;;5069094;28;20048;-79
2022/03/25 03:10:27;;;;;;;18.77;13.87;;;0.70;99.90;;;;;;5077537;28;20099;-77
2022/03/25 03:12:54;;;;;;;23.77;14.13;;;0.70;99.90;;;;;;5078111;28;20052;-78
2022/03/25 03:15:25;;;;;;;21.17;13.20;;;0.70;99.90;;;;;;5076164;28;20103;-79
2022/03/25 03:17:52;;;;;;;21.48;13.70;;;0.70;99.90;;;;;;5075327;28;20040;-77
2022/03/25 03:20:21;;;;;;;21.87;13.80;;;0.70;99.90;;;;;;5077147;28;20556;-77
2022/03/25 03:22:48;;;;;;;19.03;12.93;;;0.60;99.90;;;;;;5076489;28;20049;-78
2022/03/25 03:25:15;;;;;;;18.50;14.37;;;0.50;99.90;;;;;;5076418;28;20110;-78
2022/03/25 03:27:42;;;;;;;22.93;14.47;;;0.40;99.90;;;;;;5075515;28;20572;-79
2022/03/25 03:30:11;;;;;;;17.90;13.47;;;0.40;99.90;;;;;;5075380;28;20052;-79
2022/03/25 03:32:40;;;;;;;26.53;17.20;;;0.40;99.90;;;;;;5076279;28;20090;-79
2022/03/25 03:35:07;;;;;;;19.17;15.47;;;0.40;99.90;;;;;;5076002;28;20048;-78
2022/03/25 03:37:41;;;;;;;19.53;13.27;;;0.40;99.90;;;;;;5075390;28;20071;-78
2022/03/25 03:40:09;;;;;;;24.47;15.90;;;0.40;99.90;;;;;;5075493;28;20044;-79
2022/03/25 03:42:36;;;;;;;19.83;14.83;;;0.40;99.90;;;;;;5075910;28;20068;-77
2022/03/25 03:45:03;;;;;;;24.67;15.53;;;0.30;99.90;;;;;;5075985;28;20075;-79
2022/03/25 03:47:29;;;;;;;21.63;14.37;;;0.20;99.90;;;;;;5074921;28;20089;-79
2022/03/25 03:49:57;;;;;;;16.97;12.07;;;0.20;99.90;;;;;;5073833;28;20075;-78
2022/03/25 03:52:25;;;;;;;16.73;11.73;;;0.20;99.90;;;;;;5076039;28;20094;-78
2022/03/25 03:54:52;;;;;;;24.93;11.70;;;0.20;99.90;;;;;;5075678;28;20120;-78
2022/03/25 03:57:21;;;;;;;19.13;11.83;;;0.30;99.90;;;;;;5075330;28;20048;-80
2022/03/25 03:59:47;;;;;;;18.33;12.97;;;0.30;99.90;;;;;;5074812;28;20109;-78
2022/03/25 04:02:14;;;;;;;21.10;11.20;;;0.30;99.90;;;;;;5074568;28;20097;-78
2022/03/25 04:04:41;;;;;;;17.77;12.37;;;0.30;99.90;;;;;;5075389;28;20486;-77
2022/03/25 04:07:09;;;;;;;23.33;13.33;;;0.20;99.90;;;;;;5075715;28;20093;-79
2022/03/25 04:09:36;;;;;;;18.67;13.20;;;0.00;99.90;;;;;;5075669;28;20056;-78
2022/03/25 04:12:03;;;;;;;19.77;11.63;;;0.00;99.90;;;;;;5074662;28;20048;-77
2022/03/25 04:14:30;;;;;;;18.00;13.13;;;0.00;99.90;;;;;;5075389;28;20068;-78
2022/03/25 04:16:56;;;;;;;25.33;12.87;;;0.00;99.90;;;;;;5075381;28;20090;-79
2022/03/25 04:19:23;;;;;;;23.57;13.37;;;0.00;99.90;;;;;;5075582;28;20129;-77
2022/03/25 04:21:52;;;;;;;16.50;13.17;;;-0.20;99.90;;;;;;5075035;28;20044;-77
2022/03/25 04:24:20;;;;;;;14.97;12.13;;;-0.30;99.90;;;;;;5075478;28;20049;-78
2022/03/25 04:26:47;;;;;;;18.70;13.50;;;-0.30;99.90;;;;;;5074408;28;20056;-77
2022/03/25 04:29:13;;;;;;;17.13;11.07;;;-0.40;99.90;;;;;;5074156;28;20051;-78
2022/03/25 04:31:40;;;;;;;20.30;13.87;;;-0.40;99.90;;;;;;5074285;28;20501;-81
2022/03/25 04:34:07;;;;;;;19.23;10.83;;;-0.40;99.90;;;;;;5073718;28;20048;-79
2022/03/25 04:36:35;;;;;;;18.67;13.53;;;-0.40;99.90;;;;;;5074853;28;20045;-78
2022/03/25 04:39:02;;;;;;;14.70;11.00;;;-0.50;99.90;;;;;;5075709;28;20094;-81
2022/03/25 04:41:30;;;;;;;16.40;11.13;;;-0.60;99.90;;;;;;5077794;28;20041;-78
2022/03/25 04:43:57;;;;;;;16.80;13.63;;;-0.60;99.90;;;;;;5075401;28;20079;-76
2022/03/25 04:46:24;;;;;;;25.43;12.57;;;-0.60;99.90;;;;;;5075121;28;20044;-77
2022/03/25 04:48:50;;;;;;;15.63;12.87;;;-0.60;99.90;;;;;;5075108;28;20154;-77
2022/03/25 04:51:17;;;;;;;18.97;11.77;;;-0.60;99.90;;;;;;5073561;28;20056;-77
2022/03/25 04:53:43;;;;;;;15.97;11.17;;;-0.40;99.90;;;;;;5073226;28;20055;-76
2022/03/25 04:56:10;;;;;;;17.60;11.83;;;-0.30;99.90;;;;;;5074947;28;20045;-77
2022/03/25 04:58:38;;;;;;;18.47;11.97;;;-0.20;99.90;;;;;;5074617;28;20094;-77
2022/03/25 05:01:05;;;;;;;15.73;11.50;;;-0.10;99.90;;;;;;5073921;28;20040;-78
2022/03/25 05:03:32;;;;;;;16.50;13.13;;;0.00;99.90;;;;;;5073776;28;20044;-76
2022/03/25 05:05:59;;;;;;;18.60;12.57;;;0.00;99.90;;;;;;5074888;28;20088;-76
2022/03/25 05:08:26;;;;;;;17.67;12.53;;;0.00;99.90;;;;;;5074209;28;20056;-77
2022/03/25 05:10:53;;;;;;;22.63;11.53;;;0.00;99.90;;;;;;5073675;28;20089;-80
2022/03/25 05:13:19;;;;;;;20.83;12.23;;;0.10;99.90;;;;;;5072694;28;20460;-79
2022/03/25 05:15:48;;;;;;;27.10;13.23;;;0.20;99.90;;;;;;5073668;28;20517;-80
2022/03/25 05:18:15;;;;;;;18.43;12.43;;;0.30;99.90;;;;;;5074102;28;20045;-77
2022/03/25 05:20:41;;;;;;;28.10;12.83;;;0.20;99.90;;;;;;5074699;28;20100;-77
2022/03/25 05:23:09;;;;;;;21.07;13.03;;;0.20;99.90;;;;;;5077104;28;20170;-76
2022/03/25 05:25:36;;;;;;;19.13;12.43;;;0.30;99.90;;;;;;5075774;28;20413;-77
2022/03/25 05:28:03;;;;;;;18.73;13.07;;;0.40;99.90;;;;;;5074050;28;20037;-83
2022/03/25 05:30:32;;;;;;;20.53;12.73;;;0.50;99.90;;;;;;5056887;28;20394;-78
2022/03/25 05:33:01;;;;;;;21.73;13.87;;;0.60;99.90;;;;;;5072458;28;20052;-78
2022/03/25 05:35:29;;;;;;;18.30;11.87;;;0.70;99.90;;;;;;5074233;28;20063;-86
2022/03/25 05:37:56;;;;;;;17.37;12.30;;;0.70;99.90;;;;;;5074036;28;20053;-79
2022/03/25 05:40:25;;;;;;;22.30;14.87;;;0.80;99.90;;;;;;5073906;28;20048;-84
2022/03/25 05:42:52;;;;;;;20.73;13.97;;;0.90;99.90;;;;;;5073941;28;20048;-75
2022/03/25 05:45:20;;;;;;;21.37;14.30;;;1.00;99.90;;;;;;5072422;28;20044;-76
2022/03/25 05:47:47;;;;;;;17.83;12.27;;;1.00;99.90;;;;;;5073554;28;20098;-77
2022/03/25 05:50:16;;;;;;;23.20;14.63;;;1.10;99.90;;;;;;5072948;28;20539;-78
2022/03/25 05:52:43;;;;;;;22.37;13.93;;;1.20;99.90;;;;;;5073410;28;20063;-79
2022/03/25 05:55:12;;;;;;;19.47;12.33;;;1.30;99.90;;;;;;5073057;28;20048;-79
2022/03/25 05:57:39;;;;;;;17.87;12.73;;;1.40;99.90;;;;;;5072533;28;20557;-82
2022/03/25 06:00:08;;;;;;;20.60;11.37;;;1.50;99.90;;;;;;5074064;28;20072;-84
2022/03/25 06:02:35;;;;;;;24.07;15.87;;;1.70;99.90;;;;;;5073182;28;20450;-76
2022/03/25 06:05:02;;;;;;;17.87;12.83;;;1.80;99.90;;;;;;5071183;28;20044;-78
2022/03/25 06:07:37;;;;;;;24.53;16.03;;;2.00;99.90;;;;;;5072997;28;20044;-79
2022/03/25 06:10:04;;;;;;;27.63;16.43;;;2.30;99.90;;;;;;5075265;28;20049;-82
2022/03/25 06:12:31;;;;;;;22.17;14.60;;;2.60;99.90;;;;;;5084348;28;20049;-86
2022/03/25 06:14:58;;;;;;;18.57;13.40;;;2.90;99.90;;;;;;5072861;28;20098;-77
2022/03/25 06:17:26;;;;;;;23.67;14.80;;;3.20;99.90;;;;;;5078081;28;20049;-86
2022/03/25 06:19:52;;;;;;;18.73;13.03;;;3.50;99.90;;;;;;5087954;28;20071;-78
2022/03/25 06:22:20;;;;;;;24.80;13.23;;;3.70;99.90;;;;;;5088186;28;20049;-80
2022/03/25 06:24:48;;;;;;;20.57;13.57;;;4.00;99.90;;;;;;5074472;28;20117;-79
2022/03/25 06:27:14;;;;;;;22.43;13.80;;;4.30;99.90;;;;;;5089607;28;20045;-81
2022/03/25 06:29:41;;;;;;;20.47;13.47;;;4.50;99.90;;;;;;5082455;28;20064;-83
2022/03/25 06:32:08;;;;;;;22.33;14.47;;;4.80;99.90;;;;;;5090234;28;20072;-79
2022/03/25 06:34:35;;;;;;;25.80;14.47;;;5.10;99.90;;;;;;5087521;28;20076;-79
2022/03/25 06:37:03;;;;;;;19.03;12.33;;;5.40;99.90;;;;;;5086128;28;20049;-80
2022/03/25 06:39:30;;;;;;;21.43;12.60;;;5.60;99.90;;;;;;5079297;28;20048;-80
2022/03/25 06:41:58;;;;;;;30.33;15.27;;;6.00;99.90;;;;;;5077633;28;20082;-79
2022/03/25 06:44:25;;;;;;;18.93;13.70;;;6.30;99.90;;;;;;5076821;28;20060;-77
2022/03/25 06:46:51;;;;;;;24.47;13.90;;;6.60;99.90;;;;;;5079550;28;20066;-79
2022/03/25 06:49:18;;;;;;;23.13;13.47;;;6.90;99.90;;;;;;5076651;28;20058;-78
2022/03/25 06:51:45;;;;;;;23.30;15.23;;;7.30;99.90;;;;;;5076206;28;20071;-78
2022/03/25 06:54:12;;;;;;;27.13;16.57;;;7.60;99.90;;;;;;5076588;28;20052;-78
2022/03/25 06:56:40;;;;;;;30.13;15.87;;;8.00;99.90;;;;;;5076666;28;20142;-80
2022/03/25 06:59:09;;;;;;;28.37;15.23;;;8.30;99.90;;;;;;5076539;28;20048;-76
2022/03/25 07:01:36;;;;;;;24.03;17.00;;;8.60;99.90;;;;;;5076251;28;20037;-81
2022/03/25 07:04:03;;;;;;;30.10;17.23;;;9.00;99.40;;;;;;5078733;28;20075;-82
2022/03/25 07:06:35;;;;;;;22.47;15.50;;;9.30;98.00;;;;;;5090760;28;20048;-83
2022/03/25 07:09:04;;;;;;;25.63;14.98;;;9.60;96.00;;;;;;5093154;28;20135;-85
2022/03/25 07:11:31;;;;;;;24.98;16.50;;;10.00;94.90;;;;;;5074116;28;20455;-79
2022/03/25 07:13:58;;;;;;;30.77;17.70;;;10.30;93.20;;;;;;5072813;28;20041;-81
2022/03/25 07:16:26;;;;;;;27.30;16.20;;;10.70;92.20;;;;;;5053214;28;20053;-79
2022/03/25 07:18:55;;;;;;;23.08;16.45;;;11.10;90.60;;;;;;5057787;28;20110;-88
2022/03/25 07:21:22;;;;;;;36.33;20.35;;;11.40;90.20;;;;;;5076674;28;20040;-87
2022/03/25 07:23:49;;;;;;;23.60;16.95;;;11.70;88.20;;;;;;5081568;28;20045;-87
2022/03/25 07:26:17;;;;;;;27.70;16.23;;;12.10;85.00;;;;;;5080844;28;20058;-88
2022/03/25 07:28:43;;;;;;;28.05;17.27;;;12.40;81.50;;;;;;5079600;28;20044;-85
2022/03/25 07:31:10;;;;;;;27.85;17.08;;;12.70;79.10;;;;;;5081620;28;20052;-89
2022/03/25 07:33:39;;;;;;;29.20;18.48;;;13.00;77.60;;;;;;5077644;28;20052;-88
2022/03/25 07:36:06;;;;;;;27.67;16.20;;;13.30;74.70;;;;;;5076130;28;20048;-80
2022/03/25 07:38:32;;;;;;;32.90;18.83;;;13.50;73.10;;;;;;5075981;28;20101;-79
2022/03/25 07:40:59;;;;;;;33.38;17.50;;;13.90;73.10;;;;;;5076184;28;20052;-84
2022/03/25 07:43:26;;;;;;;31.75;18.35;;;14.10;70.60;;;;;;5077645;28;20048;-86
2022/03/25 07:45:53;;;;;;;30.00;18.63;;;14.40;70.70;;;;;;5080106;28;20041;-87
2022/03/25 07:48:19;;;;;;;28.20;17.92;;;14.80;69.40;;;;;;5076657;28;20094;-78
2022/03/25 07:50:47;;;;;;;31.42;19.83;;;14.80;67.60;;;;;;5075407;28;20127;-80
2022/03/25 07:53:14;;;;;;;28.90;17.30;;;15.30;66.40;;;;;;5073357;28;20056;-81
2022/03/25 07:55:43;;;;;;;31.45;17.98;;;15.60;65.80;;;;;;5075015;28;20059;-83
2022/03/25 07:58:10;;;;;;;27.15;17.15;;;15.80;65.70;;;;;;5076044;28;20135;-82
2022/03/25 08:00:38;;;;;;;31.77;17.17;;;16.20;64.90;;;;;;5075939;28;20059;-86
2022/03/25 08:03:04;;;;;;;26.35;17.15;;;16.50;64.50;;;;;;5076646;28;20045;-86
2022/03/25 08:05:34;;;;;;;33.83;18.83;;;16.90;62.40;;;;;;5074732;28;20055;-87
2022/03/25 08:08:12;;;;;;;29.13;17.63;;;17.10;61.80;;;;;;5076054;28;20067;-81
2022/03/25 08:10:40;;;;;;;28.65;17.35;;;17.20;60.00;;;;;;5076448;28;20123;-83
2022/03/25 08:13:07;;;;;;;26.05;18.13;;;17.20;60.10;;;;;;5075187;28;20044;-80
2022/03/25 08:15:35;;;;;;;29.08;17.20;;;17.40;60.00;;;;;;5075365;28;20048;-80
2022/03/25 08:18:05;;;;;;;31.00;20.35;;;17.60;59.00;;;;;;5075130;28;20044;-81
2022/03/25 08:20:35;;;;;;;47.72;29.70;;;18.00;58.60;;;;;;5075048;28;20409;-80
2022/03/25 08:23:06;;;;;;;42.23;22.80;;;18.50;58.40;;;;;;5075053;28;20120;-85
2022/03/25 08:28:22;;;;;;;44.30;23.35;;;19.00;56.50;;;;;;5077159;28;20063;-81
2022/03/25 08:30:49;;;;;;;34.63;20.40;;;19.40;55.90;;;;;;5075336;28;20056;-82
2022/03/25 08:33:17;;;;;;;38.50;22.85;;;19.60;55.00;;;;;;5075309;28;20056;-79
2022/03/25 08:35:48;;;;;;;40.30;20.70;;;19.80;54.40;;;;;;5083305;28;20089;-90
2022/03/25 08:38:17;;;;;;;32.05;18.73;;;20.00;53.30;;;;;;5095388;28;20049;-82
2022/03/25 08:40:44;;;;;;;30.13;17.90;;;20.10;53.60;;;;;;5089314;28;20047;-83
2022/03/25 08:43:11;;;;;;;34.53;21.88;;;20.50;52.80;;;;;;5076143;28;20044;-81
2022/03/25 08:45:38;;;;;;;35.58;18.63;;;20.40;51.70;;;;;;5074307;28;20061;-84
2022/03/25 08:48:05;;;;;;;31.75;18.65;;;20.80;52.70;;;;;;5075071;28;20052;-86
2022/03/25 08:50:32;;;;;;;39.13;20.17;;;21.40;51.90;;;;;;5073908;28;20110;-90
2022/03/25 08:52:59;;;;;;;35.20;20.30;;;21.70;50.50;;;;;;5074984;28;20044;-88
2022/03/25 08:55:27;;;;;;;28.80;17.60;;;22.00;49.60;;;;;;5075359;28;20123;-86
2022/03/25 08:57:54;;;;;;;35.83;21.00;;;22.10;49.70;;;;;;5075237;28;20049;-86
2022/03/25 09:00:21;;;;;;;33.42;19.92;;;22.60;49.40;;;;;;5074779;28;20045;-84
2022/03/25 09:02:59;;;;;;;37.13;19.83;;;22.60;48.00;;;;;;5073946;28;20056;-90
2022/03/25 09:05:26;;;;;;;35.92;18.48;;;22.70;48.00;;;;;;5079314;28;20071;-82
2022/03/25 09:07:52;;;;;;;33.90;19.52;;;22.70;47.00;;;;;;5073156;28;20547;-83
2022/03/25 09:10:19;;;;;;;35.95;20.33;;;23.10;48.50;;;;;;5070578;28;20478;-83
2022/03/25 09:12:47;;;;;;;33.95;19.52;;;23.40;46.90;;;;;;5070366;28;20048;-86
2022/03/25 09:15:16;;;;;;;32.72;20.48;;;23.70;46.70;;;;;;5068734;28;20059;-82
2022/03/25 09:17:43;;;;;;;32.10;18.88;;;23.50;46.10;;;;;;5073913;28;20056;-83
2022/03/25 09:20:14;;;;;;;35.95;20.92;;;23.90;46.80;;;;;;5074753;28;20127;-85
2022/03/25 09:22:41;;;;;;;35.75;19.83;;;24.20;46.10;;;;;;5073968;28;20098;-83
2022/03/25 09:25:08;;;;;;;35.17;20.92;;;24.30;45.60;;;;;;5073772;28;20528;-81
2022/03/25 09:27:35;;;;;;;27.55;18.15;;;24.40;45.50;;;;;;5072844;28;20044;-81
2022/03/25 09:30:05;;;;;;;34.42;20.75;;;24.50;44.90;;;;;;5074328;28;20063;-84
2022/03/25 09:32:31;;;;;;;33.70;19.30;;;24.60;44.40;;;;;;5074327;28;20053;-83
2022/03/25 09:35:10;;;;;;;30.20;18.02;;;24.60;44.20;;;;;;5072683;28;20052;-87
2022/03/25 09:37:38;;;;;;;29.42;18.95;;;24.30;43.90;;;;;;5074339;28;20052;-87
2022/03/25 09:40:08;;;;;;;32.88;20.50;;;24.40;44.90;;;;;;5058762;28;20052;-84
2022/03/25 09:42:36;;;;;;;28.70;18.98;;;24.90;44.80;;;;;;5074983;28;20044;-83
2022/03/25 09:45:05;;;;;;;35.03;18.27;;;25.10;43.10;;;;;;5073332;28;20058;-79
2022/03/25 09:47:32;;;;;;;29.63;18.92;;;24.90;44.40;;;;;;5072515;28;20052;-78
2022/03/25 09:49:59;;;;;;;34.58;18.67;;;24.90;44.20;;;;;;5071892;28;20094;-82
2022/03/25 09:52:28;;;;;;;32.35;20.10;;;25.20;43.80;;;;;;5072596;28;20066;-82
2022/03/25 09:54:55;;;;;;;28.92;18.00;;;25.60;43.10;;;;;;5055109;28;20045;-82
2022/03/25 09:57:22;;;;;;;33.28;19.50;;;26.00;43.00;;;;;;5054116;28;20056;-83
2022/03/25 09:59:49;;;;;;;31.88;20.27;;;26.60;42.90;;;;;;5053817;28;20483;-81
2022/03/25 10:02:17;;;;;;;28.92;18.02;;;26.90;41.40;;;;;;5053509;28;20446;-81
2022/03/25 10:04:44;;;;;;;24.98;16.33;;;27.30;41.60;;;;;;5053588;28;20094;-80
2022/03/25 10:07:22;;;;;;;27.38;17.20;;;27.40;40.50;;;;;;5055245;28;20055;-86
2022/03/25 10:10:05;;;;;;;26.55;17.65;;;27.90;40.70;;;;;;5037666;28;20045;-83
2022/03/25 10:12:32;;;;;;;29.45;17.95;;;27.90;39.80;;;;;;5054551;28;20458;-83
2022/03/25 10:15:11;;;;;;;29.63;19.35;;;27.70;39.90;;;;;;5060352;28;20479;-83
2022/03/25 10:17:51;;;;;;;27.65;18.27;;;28.10;40.50;;;;;;5073413;28;20082;-79
2022/03/25 10:20:19;;;;;;;24.75;17.33;;;28.60;40.00;;;;;;5072941;28;20048;-82
2022/03/25 10:23:01;;;;;;;29.63;19.50;;;28.70;39.90;;;;;;5074264;28;20053;-86
2022/03/25 10:25:39;;;;;;;30.27;17.23;;;29.00;39.60;;;;;;5074298;28;20536;-85
2022/03/25 10:28:22;;;;;;;32.28;19.80;;;29.30;38.90;;;;;;5074218;28;20155;-80
2022/03/25 10:30:51;;;;;;;26.40;17.05;;;30.00;39.70;;;;;;5074770;28;20086;-89
2022/03/25 10:33:27;;;;;;;31.55;17.45;;;30.40;38.40;;;;;;5055692;28;20049;-80
2022/03/25 10:36:02;;;;;;;26.63;18.02;;;30.60;37.60;;;;;;5073356;28;20049;-77
2022/03/25 10:38:41;;;;;;;37.38;21.88;;;30.80;37.60;;;;;;5073114;28;20049;-79
2022/03/25 10:41:08;;;;;;;26.80;16.95;;;30.80;37.10;;;;;;5073130;28;20483;-81
2022/03/25 10:43:35;;;;;;;31.27;19.52;;;30.70;37.40;;;;;;5075254;28;20044;-83
2022/03/25 10:46:01;;;;;;;23.77;15.75;;;30.80;36.80;;;;;;5080065;28;20460;-82
2022/03/25 10:48:29;;;;;;;25.95;16.30;;;31.00;36.80;;;;;;5072182;28;20086;-78
2022/03/25 10:50:58;;;;;;;24.00;15.40;;;30.60;36.70;;;;;;5073135;28;20045;-80
2022/03/25 10:53:26;;;;;;;23.63;16.17;;;30.30;36.40;;;;;;5072869;28;20074;-82
2022/03/25 10:55:56;;;;;;;26.77;17.75;;;27.80;37.30;;;;;;5055309;28;20052;-81
2022/03/25 10:58:24;;;;;;;27.60;16.90;;;27.30;39.40;;;;;;5072354;28;20045;-82
2022/03/25 11:00:51;;;;;;;27.58;16.55;;;28.40;39.60;;;;;;5075436;28;20045;-82
2022/03/25 11:03:18;;;;;;;24.50;16.73;;;29.20;38.40;;;;;;5076811;28;20555;-81
2022/03/25 11:05:46;;;;;;;28.35;15.57;;;29.40;37.60;;;;;;5076545;28;20102;-81
2022/03/25 11:08:13;;;;;;;24.00;15.70;;;29.90;37.80;;;;;;5076965;28;20083;-80
2022/03/25 11:10:40;;;;;;;25.42;16.17;;;30.20;37.40;;;;;;5076742;28;20045;-81
2022/03/25 11:13:08;;;;;;;24.05;16.02;;;29.60;36.50;;;;;;5076228;28;20106;-80
2022/03/25 11:15:36;;;;;;;26.77;16.58;;;27.90;37.90;;;;;;5076686;28;20476;-81
2022/03/25 11:18:03;;;;;;;22.55;14.85;;;27.00;39.70;;;;;;5076591;28;20044;-81
2022/03/25 11:20:31;;;;;;;24.77;14.75;;;28.80;39.30;;;;;;5076221;28;20567;-80
2022/03/25 11:23:06;;;;;;;21.95;14.57;;;29.90;38.10;;;;;;5076588;28;20106;-80
2022/03/25 11:25:38;;;;;;;23.95;15.23;;;30.50;37.00;;;;;;5076556;28;20048;-81
2022/03/25 11:28:12;;;;;;;23.77;15.73;;;30.90;37.40;;;;;;5075773;28;20040;-82
2022/03/25 11:30:39;;;;;;;27.23;16.60;;;30.50;36.40;;;;;;5075725;28;20445;-80
2022/03/25 11:33:08;;;;;;;22.73;15.00;;;30.60;36.30;;;;;;5076359;28;20456;-81
2022/03/25 11:35:36;;;;;;;26.48;15.30;;;31.20;36.40;;;;;;5076270;28;20418;-81
2022/03/25 11:38:31;;;;;;;22.33;15.35;;;31.30;36.20;;;;;;5075991;28;20093;-80
2022/03/25 11:41:22;;;;;;;20.92;13.57;;;31.50;35.50;;;;;;5028743;28;20079;-81
2022/03/25 11:44:17;;;;;;;22.73;12.57;;;31.40;35.70;;;;;;5076076;28;20094;-81
2022/03/25 11:47:18;;;;;;;20.52;14.32;;;32.10;35.50;;;;;;5075858;28;20052;-81
2022/03/25 11:49:45;;;;;;;19.73;14.02;;;32.30;35.10;;;;;;5075791;28;20044;-81
2022/03/25 11:52:33;;;;;;;16.23;12.35;;;32.50;35.10;;;;;;5075783;28;20124;-80
2022/03/25 11:55:01;;;;;;;19.00;11.70;;;32.40;34.70;;;;;;5075971;28;20132;-80
2022/03/25 11:57:31;;;;;;;19.83;12.48;;;32.50;34.70;;;;;;5076223;28;20410;-80
2022/03/25 11:59:59;;;;;;;15.55;11.68;;;32.50;34.50;;;;;;5076022;28;20045;-81
2022/03/25 12:02:29;;;;;;;18.95;12.45;;;32.30;35.00;;;;;;5075566;28;20123;-80
2022/03/25 12:04:58;;;;;;;26.38;14.13;;;32.30;35.00;;;;;;5075536;28;20048;-80
2022/03/25 12:07:25;;;;;;;23.42;14.18;;;32.50;35.10;;;;;;5075554;28;20080;-80
2022/03/25 12:09:52;;;;;;;22.13;13.55;;;32.60;34.30;;;;;;5075644;28;20103;-81
2022/03/25 12:12:19;;;;;;;22.02;13.57;;;32.80;34.70;;;;;;5075086;28;20110;-82
2022/03/25 12:15:10;;;;;;;24.80;16.85;;;32.60;34.30;;;;;;5075671;28;20098;-81
2022/03/25 12:17:45;;;;;;;26.98;17.10;;;32.10;34.20;;;;;;5075191;28;20438;-80
2022/03/25 12:20:12;;;;;;;20.63;13.70;;;31.40;34.90;;;;;;5075303;28;20100;-81
2022/03/25 12:22:42;;;;;;;23.17;13.23;;;31.60;35.70;;;;;;5075069;28;20178;-81
2022/03/25 12:25:21;;;;;;;19.02;11.77;;;31.70;35.60;;;;;;5075354;28;20071;-81
2022/03/25 12:27:47;;;;;;;19.52;12.52;;;30.10;35.90;;;;;;5075382;28;20491;-81
2022/03/25 12:30:16;;;;;;;17.60;12.70;;;30.50;36.70;;;;;;5074791;28;20110;-81
2022/03/25 12:32:43;;;;;;;21.08;12.75;;;30.80;35.80;;;;;;5075315;28;20140;-80
2022/03/25 12:35:13;;;;;;;21.17;15.32;;;30.30;36.30;;;;;;5075522;28;20478;-81
2022/03/25 12:38:02;;;;;;;20.67;13.93;;;30.50;36.30;;;;;;5075647;28;20414;-80
2022/03/25 12:40:31;;;;;;;18.67;13.00;;;30.90;35.80;;;;;;5075445;28;20057;-81
2022/03/25 12:43:01;;;;;;;20.50;12.63;;;30.50;35.80;;;;;;5074990;28;20497;-81